createdAt,value
2018-07-06T00:00:47.126Z,19.50
2018-07-06T00:03:26.868Z,19.60
2018-07-06T00:06:08.937Z,19.70
2018-07-06T00:08:48.689Z,19.60
2018-07-06T00:11:33.999Z,19.60
2018-07-06T00:14:13.702Z,19.60
2018-07-06T00:16:53.934Z,19.60
2018-07-06T00:19:36.702Z,19.60
2018-07-06T00:22:16.369Z,19.60
2018-07-06T00:24:56.157Z,19.60
2018-07-06T00:27:37.325Z,19.70
2018-07-06T00:30:29.589Z,19.70
2018-07-06T00:33:09.541Z,19.80
2018-07-06T00:35:49.237Z,19.80
2018-07-06T00:38:28.934Z,19.70
2018-07-06T00:43:43.478Z,19.80
2018-07-06T00:46:30.397Z,19.80
2018-07-06T00:49:10.046Z,19.70
2018-07-06T00:51:50.093Z,19.70
2018-07-06T00:54:29.737Z,19.80
2018-07-06T00:57:09.552Z,19.90
2018-07-06T00:59:49.783Z,19.90
2018-07-06T01:02:29.410Z,19.90
2018-07-06T01:05:09.290Z,19.90
2018-07-06T01:07:49.461Z,19.80
2018-07-06T01:10:30.694Z,19.90
2018-07-06T01:13:11.042Z,19.80
2018-07-06T01:15:50.901Z,19.90
2018-07-06T01:18:30.765Z,19.80
2018-07-06T01:21:10.610Z,19.80
2018-07-06T01:23:50.513Z,19.70
2018-07-06T01:26:30.853Z,19.70
2018-07-06T01:29:11.402Z,19.80
2018-07-06T01:31:51.463Z,19.80
2018-07-06T01:34:31.038Z,19.80
2018-07-06T01:37:10.786Z,19.80
2018-07-06T01:39:50.431Z,19.70
2018-07-06T01:42:30.980Z,19.70
2018-07-06T01:45:10.993Z,19.70
2018-07-06T01:47:51.441Z,19.70
2018-07-06T01:50:31.006Z,19.60
2018-07-06T01:53:11.286Z,19.60
2018-07-06T01:55:51.012Z,19.60
2018-07-06T02:01:04.329Z,19.60
2018-07-06T02:06:18.313Z,19.50
2018-07-06T02:11:36.101Z,19.40
2018-07-06T02:14:15.805Z,19.50
2018-07-06T02:16:55.549Z,19.40
2018-07-06T02:19:35.400Z,19.40
2018-07-06T02:22:15.222Z,19.50
2018-07-06T02:27:28.695Z,19.60
2018-07-06T02:30:08.854Z,19.60
2018-07-06T02:32:50.055Z,19.70
2018-07-06T02:35:29.742Z,19.70
2018-07-06T02:40:43.425Z,19.80
2018-07-06T02:43:23.781Z,19.80
2018-07-06T02:46:03.914Z,19.60
2018-07-06T02:51:20.410Z,19.60
2018-07-06T02:54:00.310Z,19.60
2018-07-06T02:56:39.919Z,19.70
2018-07-06T03:01:53.367Z,19.70
2018-07-06T03:07:06.720Z,19.60
2018-07-06T03:09:48.705Z,19.60
2018-07-06T03:12:28.999Z,19.50
2018-07-06T03:15:08.708Z,19.50
2018-07-06T03:17:48.614Z,19.40
2018-07-06T03:20:28.314Z,19.40
2018-07-06T03:23:08.307Z,19.40
2018-07-06T03:25:47.905Z,19.50
2018-07-06T03:28:27.902Z,19.50
2018-07-06T03:31:08.236Z,19.40
2018-07-06T03:33:48.513Z,19.50
2018-07-06T03:36:28.271Z,19.40
2018-07-06T03:39:08.436Z,19.40
2018-07-06T03:41:54.690Z,19.40
2018-07-06T03:44:34.607Z,19.50
2018-07-06T03:47:14.914Z,19.50
2018-07-06T03:52:28.508Z,19.40
2018-07-06T03:55:08.290Z,19.40
2018-07-06T03:57:48.018Z,19.30
2018-07-06T04:00:27.815Z,19.40
2018-07-06T04:03:08.377Z,19.30
2018-07-06T04:05:48.209Z,19.20
2018-07-06T04:13:36.410Z,19.10
2018-07-06T04:16:16.233Z,19.00
2018-07-06T04:21:29.673Z,19.00
2018-07-06T04:26:43.101Z,19.10
2018-07-06T04:29:23.341Z,19.00
2018-07-06T04:32:07.718Z,19.10
2018-07-06T04:34:47.682Z,19.20
2018-07-06T04:37:27.649Z,19.10
2018-07-06T04:40:07.234Z,19.10
2018-07-06T04:42:47.229Z,19.10
2018-07-06T04:45:28.130Z,19.10
2018-07-06T04:48:07.937Z,19.10
2018-07-06T04:50:47.570Z,19.00
2018-07-06T04:53:27.750Z,19.10
2018-07-06T04:56:07.345Z,19.00
2018-07-06T05:01:20.711Z,19.20
2018-07-06T05:04:00.534Z,19.10
2018-07-06T05:11:49.805Z,19.00
2018-07-06T05:14:29.333Z,19.00
2018-07-06T05:17:09.165Z,19.10
2018-07-06T05:19:48.899Z,19.10
2018-07-06T05:22:28.952Z,19.10
2018-07-06T05:25:09.129Z,19.10
2018-07-06T05:27:55.085Z,19.10
2018-07-06T05:30:34.915Z,19.20
2018-07-06T05:33:15.313Z,19.10
2018-07-06T05:35:55.061Z,19.10
2018-07-06T05:38:34.783Z,19.00
2018-07-06T05:41:14.505Z,19.10
2018-07-06T05:43:55.084Z,19.10
2018-07-06T05:46:36.573Z,19.10
2018-07-06T05:49:16.283Z,19.10
2018-07-06T05:51:56.504Z,19.10
2018-07-06T05:54:36.065Z,19.00
2018-07-06T05:57:15.737Z,19.00
2018-07-06T05:59:55.353Z,19.00
2018-07-06T06:02:35.040Z,18.90
2018-07-06T06:05:14.769Z,18.90
2018-07-06T06:07:42.472Z,18.80
2018-07-06T06:10:11.330Z,18.90
2018-07-06T06:12:40.149Z,18.90
2018-07-06T06:15:08.381Z,18.90
2018-07-06T06:17:37.421Z,18.80
2018-07-06T06:20:16.732Z,18.80
2018-07-06T06:22:45.366Z,18.70
2018-07-06T06:30:16.413Z,18.40
2018-07-06T06:32:45.028Z,18.20
2018-07-06T06:35:13.279Z,18.20
2018-07-06T06:37:41.750Z,18.20
2018-07-06T06:40:10.035Z,18.30
2018-07-06T06:42:38.279Z,18.30
2018-07-06T06:45:07.038Z,18.30
2018-07-06T06:47:35.954Z,18.40
2018-07-06T06:50:04.253Z,18.20
2018-07-06T06:52:33.069Z,18.30
2018-07-06T06:55:01.386Z,18.20
2018-07-06T06:57:29.669Z,18.30
2018-07-06T06:59:58.171Z,18.40
2018-07-06T07:02:26.763Z,18.30
2018-07-06T07:04:55.318Z,18.40
2018-07-06T07:07:23.888Z,18.40
2018-07-06T07:09:52.216Z,18.40
2018-07-06T07:12:25.506Z,18.40
2018-07-06T07:14:53.858Z,18.40
2018-07-06T07:17:22.926Z,18.30
2018-07-06T07:19:51.198Z,18.30
2018-07-06T07:24:48.212Z,18.40
2018-07-06T07:27:16.554Z,18.40
2018-07-06T07:29:45.211Z,18.40
2018-07-06T07:32:13.525Z,18.50
2018-07-06T07:34:42.158Z,18.50
2018-07-06T07:37:10.453Z,18.60
2018-07-06T07:39:38.749Z,18.60
2018-07-06T07:42:07.037Z,18.60
2018-07-06T07:44:35.825Z,18.50
2018-07-06T07:47:04.938Z,18.50
2018-07-06T07:54:50.435Z,18.60
2018-07-06T07:57:19.034Z,18.60
2018-07-06T07:59:47.878Z,18.60
2018-07-06T08:02:16.402Z,18.60
2018-07-06T08:04:47.728Z,18.70
2018-07-06T08:07:16.144Z,18.70
2018-07-06T08:09:46.154Z,18.90
2018-07-06T08:12:15.161Z,19.10
2018-07-06T08:14:43.862Z,19.10
2018-07-06T08:17:12.163Z,19.10
2018-07-06T08:19:40.405Z,19.10
2018-07-06T08:22:08.681Z,19.20
2018-07-06T08:24:36.934Z,19.40
2018-07-06T08:27:05.290Z,19.40
2018-07-06T08:29:35.282Z,19.60
2018-07-06T08:32:04.795Z,19.60
2018-07-06T08:34:44.865Z,19.70
2018-07-06T08:37:34.745Z,19.80
2018-07-06T08:40:03.404Z,19.90
2018-07-06T08:42:32.740Z,20.00
2018-07-06T08:45:02.076Z,20.00
2018-07-06T08:47:30.948Z,19.90
2018-07-06T08:49:59.797Z,20.00
2018-07-06T08:52:28.842Z,20.10
2018-07-06T08:54:57.101Z,20.20
2018-07-06T08:57:26.551Z,20.20
2018-07-06T08:59:55.802Z,20.30
2018-07-06T09:02:24.559Z,20.30
2018-07-06T09:04:54.506Z,20.30
2018-07-06T09:07:22.938Z,20.30
2018-07-06T09:09:51.643Z,20.50
2018-07-06T09:12:20.518Z,20.50
2018-07-06T09:14:48.753Z,20.50
2018-07-06T09:17:18.106Z,20.60
2018-07-06T09:19:47.609Z,20.70
2018-07-06T09:22:16.994Z,20.60
2018-07-06T09:24:46.145Z,20.70
2018-07-06T09:27:14.522Z,20.70
2018-07-06T09:29:43.477Z,20.70
2018-07-06T09:32:11.599Z,20.90
2018-07-06T09:34:40.674Z,21.00
2018-07-06T09:37:09.101Z,21.00
2018-07-06T09:39:37.957Z,21.20
2018-07-06T09:42:06.286Z,21.10
2018-07-06T09:44:35.230Z,21.00
2018-07-06T09:47:04.119Z,21.10
2018-07-06T09:49:32.910Z,21.20
2018-07-06T09:52:01.601Z,21.30
2018-07-06T09:54:30.229Z,21.30
2018-07-06T09:56:58.526Z,21.40
2018-07-06T09:59:26.833Z,21.40
2018-07-06T10:04:23.901Z,21.30
2018-07-06T10:06:52.182Z,21.20
2018-07-06T10:09:20.441Z,21.30
2018-07-06T10:11:49.142Z,21.60
2018-07-06T10:14:17.405Z,21.60
2018-07-06T10:16:45.666Z,21.80
2018-07-06T10:19:13.942Z,21.90
2018-07-06T10:21:42.201Z,21.90
2018-07-06T10:24:10.589Z,22.10
2018-07-06T10:26:38.876Z,22.10
2018-07-06T10:29:15.561Z,21.90
2018-07-06T10:31:55.051Z,21.90
2018-07-06T10:34:23.997Z,21.90
2018-07-06T10:36:52.357Z,21.90
2018-07-06T10:39:20.629Z,22.00
2018-07-06T10:41:48.906Z,22.20
2018-07-06T10:44:17.866Z,22.30
2018-07-06T10:46:52.288Z,22.40
2018-07-06T10:49:21.161Z,22.30
2018-07-06T10:51:49.841Z,22.10
2018-07-06T10:54:18.097Z,22.50
2018-07-06T10:56:46.384Z,22.60
2018-07-06T11:01:43.255Z,22.90
2018-07-06T11:04:12.449Z,23.00
2018-07-06T11:06:40.731Z,23.10
2018-07-06T11:11:37.946Z,22.90
2018-07-06T11:16:34.482Z,23.00
2018-07-06T11:19:02.820Z,23.20
2018-07-06T11:21:31.102Z,23.30
2018-07-06T11:23:59.529Z,23.50
2018-07-06T11:28:55.789Z,23.60
2018-07-06T11:31:25.053Z,23.60
2018-07-06T11:34:05.720Z,23.70
2018-07-06T11:36:34.180Z,23.90
2018-07-06T11:39:03.113Z,23.70
2018-07-06T11:41:31.360Z,24.00
2018-07-06T11:44:05.282Z,24.20
2018-07-06T11:46:34.058Z,24.20
2018-07-06T11:49:02.381Z,24.50
2018-07-06T11:54:04.545Z,25.30
2018-07-06T11:56:32.814Z,25.40
2018-07-06T11:59:01.276Z,25.90
2018-07-06T12:01:29.549Z,26.10
2018-07-06T12:06:31.776Z,25.50
2018-07-06T12:09:00.054Z,25.00
2018-07-06T12:11:28.950Z,25.00
2018-07-06T12:13:57.230Z,26.20
2018-07-06T12:16:25.529Z,26.80
2018-07-06T12:18:53.791Z,27.20
2018-07-06T12:21:22.682Z,27.00
2018-07-06T12:23:51.024Z,26.30
2018-07-06T12:26:19.828Z,25.70
2018-07-06T12:28:48.093Z,25.50
2018-07-06T12:33:45.448Z,27.40
2018-07-06T12:38:42.294Z,30.10
2018-07-06T12:41:10.566Z,29.20
2018-07-06T12:43:38.829Z,27.60
2018-07-06T12:46:07.721Z,26.30
2018-07-06T12:48:36.765Z,25.30
2018-07-06T12:51:05.021Z,24.30
2018-07-06T12:53:33.479Z,23.70
2018-07-06T12:56:01.757Z,23.30
2018-07-06T12:58:30.061Z,22.90
2018-07-06T13:01:01.530Z,22.50
2018-07-06T13:03:29.822Z,22.30
2018-07-06T13:05:59.550Z,22.40
2018-07-06T13:08:27.875Z,22.20
2018-07-06T13:10:56.555Z,22.20
2018-07-06T13:13:25.317Z,22.10
2018-07-06T13:15:53.574Z,22.00
2018-07-06T13:18:21.921Z,21.80
2018-07-06T13:20:50.800Z,21.80
2018-07-06T13:23:19.137Z,21.70
2018-07-06T13:25:47.463Z,21.70
2018-07-06T13:28:15.781Z,21.60
2018-07-06T13:30:44.077Z,21.50
2018-07-06T13:33:12.741Z,21.50
2018-07-06T13:35:41.210Z,21.40
2018-07-06T13:38:09.484Z,21.50
2018-07-06T13:43:06.070Z,21.80
2018-07-06T13:45:34.916Z,21.90
2018-07-06T13:48:06.527Z,22.00
2018-07-06T13:50:35.086Z,22.10
2018-07-06T13:53:03.689Z,22.20
2018-07-06T13:55:31.952Z,22.40
2018-07-06T13:58:00.241Z,22.40
2018-07-06T14:00:28.578Z,22.60
2018-07-06T14:02:56.932Z,22.70
2018-07-06T14:05:25.839Z,22.90
2018-07-06T14:07:54.118Z,22.90
2018-07-06T14:10:22.907Z,22.90
2018-07-06T14:12:51.618Z,23.00
2018-07-06T14:15:20.478Z,22.90
2018-07-06T14:17:48.734Z,23.00
2018-07-06T14:20:17.035Z,22.80
2018-07-06T14:22:45.575Z,22.80
2018-07-06T14:25:13.837Z,22.80
2018-07-06T14:27:42.187Z,22.80
2018-07-06T14:30:11.117Z,22.70
2018-07-06T14:32:39.493Z,22.70
2018-07-06T14:35:09.254Z,22.70
2018-07-06T14:40:06.033Z,22.60
2018-07-06T14:42:34.390Z,22.40
2018-07-06T14:45:03.289Z,22.40
2018-07-06T14:47:32.184Z,22.30
2018-07-06T14:50:00.466Z,22.30
2018-07-06T14:52:29.205Z,22.40
2018-07-06T14:54:57.518Z,22.50
2018-07-06T14:57:25.989Z,22.60
2018-07-06T14:59:54.770Z,22.60
2018-07-06T15:02:23.527Z,22.80
2018-07-06T15:04:51.757Z,23.00
2018-07-06T15:07:20.027Z,23.10
2018-07-06T15:09:48.294Z,23.20
2018-07-06T15:12:17.283Z,23.20
2018-07-06T15:14:45.522Z,23.20
2018-07-06T15:17:13.778Z,23.40
2018-07-06T15:19:42.035Z,23.40
2018-07-06T15:22:10.310Z,23.40
2018-07-06T15:24:38.757Z,23.50
2018-07-06T15:27:07.009Z,23.60
2018-07-06T15:29:35.628Z,23.60
2018-07-06T15:32:03.974Z,23.40
2018-07-06T15:34:32.246Z,23.10
2018-07-06T15:37:01.086Z,23.00
2018-07-06T15:39:29.280Z,22.90
2018-07-06T15:41:57.590Z,23.10
2018-07-06T15:44:26.426Z,23.20
2018-07-06T15:46:55.179Z,23.40
2018-07-06T15:49:23.443Z,23.50
2018-07-06T15:51:52.049Z,23.50
2018-07-06T15:54:20.298Z,23.50
2018-07-06T15:59:16.634Z,23.50
2018-07-06T16:01:44.901Z,23.30
2018-07-06T16:04:13.578Z,23.30
2018-07-06T16:06:41.881Z,23.30
2018-07-06T16:09:10.142Z,23.40
2018-07-06T16:11:38.866Z,23.40
2018-07-06T16:14:07.177Z,23.60
2018-07-06T16:19:04.105Z,23.40
2018-07-06T16:21:32.923Z,23.50
2018-07-06T16:24:01.378Z,23.30
2018-07-06T16:26:29.801Z,23.30
2018-07-06T16:33:54.686Z,23.10
2018-07-06T16:36:23.384Z,22.90
2018-07-06T16:43:49.190Z,22.80
2018-07-06T16:53:43.325Z,22.70
2018-07-06T16:56:12.038Z,22.70
2018-07-06T16:58:40.511Z,22.60
2018-07-06T17:03:37.365Z,22.50
2018-07-06T17:06:05.658Z,22.40
2018-07-06T17:08:34.655Z,22.30
2018-07-06T17:11:03.091Z,22.30
2018-07-06T17:13:32.021Z,22.30
2018-07-06T17:16:01.198Z,22.30
2018-07-06T17:18:29.806Z,22.30
2018-07-06T17:20:58.445Z,22.20
2018-07-06T17:23:26.714Z,22.10
2018-07-06T17:30:51.336Z,22.00
2018-07-06T17:33:20.640Z,22.00
2018-07-06T17:35:50.006Z,21.90
2018-07-06T17:38:18.726Z,21.90
2018-07-06T17:40:47.065Z,22.00
2018-07-06T17:43:23.630Z,22.00
2018-07-06T17:45:53.716Z,22.00
2018-07-06T17:48:23.837Z,21.90
2018-07-06T17:50:53.638Z,21.70
2018-07-06T17:53:22.385Z,21.80
2018-07-06T17:55:51.062Z,21.90
2018-07-06T17:58:19.638Z,21.90
2018-07-06T18:05:52.696Z,21.90
2018-07-06T18:08:20.966Z,21.80
2018-07-06T18:10:49.243Z,21.80
2018-07-06T18:13:18.044Z,21.70
2018-07-06T18:15:46.339Z,21.70
2018-07-06T18:18:15.161Z,21.60
2018-07-06T18:20:43.471Z,21.70
2018-07-06T18:23:12.210Z,21.60
2018-07-06T18:25:42.549Z,21.60
2018-07-06T18:28:10.885Z,21.60
2018-07-06T18:35:36.107Z,21.50
2018-07-06T18:38:04.774Z,21.50
2018-07-06T18:40:32.989Z,21.50
2018-07-06T18:45:30.017Z,21.40
2018-07-06T18:47:58.910Z,21.40
2018-07-06T18:50:27.219Z,21.40
2018-07-06T18:52:55.957Z,21.30
2018-07-06T18:55:24.309Z,21.20
2018-07-06T18:57:56.066Z,21.30
2018-07-06T19:00:25.121Z,21.20
2018-07-06T19:02:53.878Z,21.30
2018-07-06T19:05:22.850Z,21.20
2018-07-06T19:07:51.446Z,21.20
2018-07-06T19:10:19.834Z,21.10
2018-07-06T19:12:48.690Z,21.00
2018-07-06T19:15:16.999Z,21.00
2018-07-06T19:17:45.707Z,20.90
2018-07-06T19:22:42.021Z,20.80
2018-07-06T19:25:10.802Z,20.70
2018-07-06T19:27:39.352Z,20.60
2018-07-06T19:32:36.834Z,20.50
2018-07-06T19:35:05.173Z,20.40
2018-07-06T19:37:33.997Z,20.40
2018-07-06T19:40:02.530Z,20.40
2018-07-06T19:42:30.813Z,20.40
2018-07-06T19:44:59.561Z,20.40
2018-07-06T19:47:28.390Z,20.40
2018-07-06T19:49:57.083Z,20.30
2018-07-06T19:52:25.827Z,20.20
2018-07-06T19:54:54.329Z,20.10
2018-07-06T19:59:51.411Z,20.10
2018-07-06T20:02:20.057Z,20.10
2018-07-06T20:04:48.353Z,20.00
2018-07-06T20:07:16.629Z,19.90
2018-07-06T20:09:44.986Z,19.90
2018-07-06T20:12:13.577Z,19.90
2018-07-06T20:14:41.819Z,19.80
2018-07-06T20:17:10.572Z,19.80
2018-07-06T20:19:38.833Z,19.70
2018-07-06T20:22:07.385Z,19.60
2018-07-06T20:24:35.661Z,19.70
2018-07-06T20:27:03.931Z,19.70
2018-07-06T20:32:00.235Z,19.70
2018-07-06T20:34:28.758Z,19.70
2018-07-06T20:36:57.346Z,19.70
2018-07-06T20:39:25.934Z,19.70
2018-07-06T20:41:54.201Z,19.70
2018-07-06T20:44:22.714Z,19.70
2018-07-06T20:49:19.527Z,19.60
2018-07-06T20:51:49.154Z,19.60
2018-07-06T20:54:17.445Z,19.50
2018-07-06T20:56:46.190Z,19.50
2018-07-06T20:59:14.642Z,19.50
2018-07-06T21:01:43.577Z,19.30
2018-07-06T21:04:11.844Z,19.20
2018-07-06T21:06:40.118Z,19.10
2018-07-06T21:09:08.448Z,19.00
2018-07-06T21:11:37.186Z,18.90
2018-07-06T21:14:06.061Z,18.90
2018-07-06T21:16:34.350Z,19.00
2018-07-06T21:19:02.683Z,18.90
2018-07-06T21:21:30.982Z,18.90
2018-07-06T21:23:59.241Z,18.80
2018-07-06T21:26:27.601Z,18.80
2018-07-06T21:31:25.262Z,18.80
2018-07-06T21:33:53.530Z,18.80
2018-07-06T21:36:21.825Z,18.90
2018-07-06T21:38:50.559Z,18.90
2018-07-06T21:41:19.970Z,18.80
2018-07-06T21:43:49.442Z,18.80
2018-07-06T21:48:47.331Z,18.60
2018-07-06T21:51:15.586Z,18.60
2018-07-06T21:53:44.293Z,18.60
2018-07-06T21:56:12.573Z,18.60
2018-07-06T21:58:41.514Z,18.40
2018-07-06T22:01:10.350Z,18.40
2018-07-06T22:03:38.606Z,18.40
2018-07-06T22:06:07.270Z,18.30
2018-07-06T22:08:36.134Z,18.30
2018-07-06T22:11:04.414Z,18.30
2018-07-06T22:16:03.476Z,18.30
2018-07-06T22:18:32.574Z,18.30
2018-07-06T22:21:01.291Z,18.20
2018-07-06T22:23:29.624Z,18.30
2018-07-06T22:25:57.996Z,18.30
2018-07-06T22:30:55.377Z,18.20
2018-07-06T22:33:23.721Z,18.20
2018-07-06T22:35:52.072Z,18.20
2018-07-06T22:38:20.790Z,18.20
2018-07-06T22:40:49.091Z,18.10
2018-07-06T22:43:17.372Z,18.10
2018-07-06T22:45:45.893Z,18.10
2018-07-06T22:48:14.649Z,18.00
2018-07-06T22:50:42.909Z,18.00
2018-07-06T22:53:11.546Z,18.00
2018-07-06T22:55:40.254Z,17.90
2018-07-06T23:00:37.566Z,17.90
2018-07-06T23:03:06.178Z,17.90
2018-07-06T23:05:34.802Z,17.80
2018-07-06T23:10:31.113Z,17.80
2018-07-06T23:12:59.978Z,17.80
2018-07-06T23:15:28.260Z,17.80
2018-07-06T23:17:56.557Z,17.80
2018-07-06T23:20:28.495Z,17.80
2018-07-06T23:22:59.744Z,17.80
2018-07-06T23:25:28.598Z,17.80
2018-07-06T23:30:25.650Z,17.70
2018-07-06T23:32:54.440Z,17.70
2018-07-06T23:35:23.445Z,17.70
2018-07-06T23:37:51.823Z,17.60
2018-07-06T23:40:21.078Z,17.50
2018-07-06T23:45:18.054Z,17.50
2018-07-06T23:50:15.061Z,17.50
2018-07-06T23:52:44.220Z,17.50
2018-07-06T23:55:12.821Z,17.40
2018-07-06T23:57:41.201Z,17.40
